YXHG weather

Gold Coast University Hospital Helipad
Gold Coast, Queensland, Australia

Public forecast

Using degrees Celsius for public forecast. Weather courtesy of forecast.io.

METAR (pilot weather report)

Closest report is Gold Coast Airport, 13.9 nm (25.8 km) SSE. Retrieved 2019/04/24 22:00 UTC (9 minutes ago):

YBCG 242200Z AUTO 19006KT 9999 // NCD 20/16 Q1021 RF00.0/000.0

TAF (pilot weather forecast)

Closest forecast is Gold Coast Airport, 13.9 nm (25.8 km) SSE. Retrieved 2019/04/24 18:00 UTC (4 hours ago):

TAF YBCG 241707Z 2418/2518 VRB03KT 9999 -SHRA FEW025 BKN040 FM250000 12012KT 9999 SCT035 FM250800 23005KT 9999 SCT030